Time;durP1;ratioP1;P1;durP2;ratioP2;P2;SDS_P1;SDS_P2;PMS_P1;PMS_P2;Temp;Humidity;BMP_temperature;BMP_pressure;BME280_temperature;BME280_humidity;BME280_pressure;Samples;Min_cycle;Max_cycle;Signal;HPM_P1;HPM_P2
2022/03/20 00:01:05;;;;;;;7.45;3.63;;;;;;;5.56;52.56;103295.34;5071512;28;20032;-83
2022/03/20 00:03:31;;;;;;;10.45;3.97;;;;;;;5.53;52.94;103297.88;5046611;28;20053;-81
2022/03/20 00:05:58;;;;;;;11.40;4.18;;;;;;;5.48;52.50;103291.53;5029978;28;20080;-82
2022/03/20 00:08:23;;;;;;;8.40;3.83;;;;;;;5.44;52.76;103285.28;5030145;28;20459;-83
2022/03/20 00:10:51;;;;;;;11.73;3.75;;;;;;;5.41;53.10;103290.41;5063376;28;20079;-83
2022/03/20 00:13:20;;;;;;;9.68;4.13;;;;;;;5.37;53.03;103286.78;5046470;28;20061;-83
2022/03/20 00:15:47;;;;;;;8.10;3.38;;;;;;;5.33;53.33;103283.97;5029797;28;20040;-83
2022/03/20 00:18:15;;;;;;;9.63;4.07;;;;;;;5.30;53.29;103275.97;5015851;28;20052;-83
2022/03/20 00:20:43;;;;;;;9.18;3.75;;;;;;;5.28;53.55;103278.53;5029741;28;20504;-83
2022/03/20 00:23:11;;;;;;;9.20;4.20;;;;;;;5.21;53.96;103260.72;5063056;28;20040;-83
2022/03/20 00:25:38;;;;;;;8.45;4.15;;;;;;;5.21;53.93;103270.34;5046855;28;20041;-83
2022/03/20 00:28:05;;;;;;;8.93;4.38;;;;;;;5.16;54.38;103267.53;5030371;28;20029;-83
2022/03/20 00:30:31;;;;;;;9.57;4.57;;;;;;;5.12;54.23;103255.13;5030163;28;20018;-83
2022/03/20 00:32:57;;;;;;;14.57;4.55;;;;;;;5.08;54.17;103258.47;5046096;28;20388;-83
2022/03/20 00:35:23;;;;;;;8.68;4.20;;;;;;;5.03;54.38;103257.38;5055566;28;20033;-84
2022/03/20 00:37:48;;;;;;;9.50;4.10;;;;;;;4.98;54.49;103245.81;5016091;28;20044;-83
2022/03/20 00:40:14;;;;;;;10.25;4.25;;;;;;;4.89;54.96;103227.94;5032962;28;20044;-83
2022/03/20 00:42:40;;;;;;;8.57;4.57;;;;;;;4.90;54.93;103233.28;5066028;28;20388;-83
2022/03/20 00:45:06;;;;;;;8.98;4.40;;;;;;;4.86;55.18;103231.34;5066244;28;20033;-83
2022/03/20 00:47:32;;;;;;;10.75;4.35;;;;;;;4.82;54.88;103228.53;5032736;28;20128;-83
2022/03/20 00:49:57;;;;;;;7.57;3.67;;;;;;;4.77;55.68;103233.59;5082829;28;20128;-83
2022/03/20 00:52:23;;;;;;;8.70;4.25;;;;;;;4.72;55.70;103222.00;5082930;28;20389;-84
2022/03/20 00:54:49;;;;;;;9.35;4.28;;;;;;;4.67;55.89;103213.06;5065960;28;20095;-84
2022/03/20 00:57:15;;;;;;;9.98;4.18;;;;;;;4.66;56.52;103217.41;5066220;28;20040;-83
2022/03/20 00:59:41;;;;;;;9.95;4.55;;;;;;;4.64;56.21;103216.47;5049170;28;20456;-84
2022/03/20 01:02:08;;;;;;;7.45;4.15;;;;;;;4.61;56.27;103212.81;5032448;28;20095;-83
2022/03/20 01:04:35;;;;;;;8.65;4.43;;;;;;;4.55;56.76;103212.56;5033016;28;20053;-83
2022/03/20 01:07:02;;;;;;;10.70;4.85;;;;;;;4.55;56.29;103208.25;5032417;28;20115;-84
2022/03/20 01:09:29;;;;;;;8.82;4.90;;;;;;;4.48;56.51;103195.69;5050708;28;20035;-84
2022/03/20 01:11:55;;;;;;;8.82;4.55;;;;;;;4.48;56.79;103204.44;5049282;28;20406;-84
2022/03/20 01:14:22;;;;;;;13.50;5.70;;;;;;;4.45;56.88;103196.47;5016295;28;20437;-84
2022/03/20 01:16:48;;;;;;;10.15;5.25;;;;;;;4.47;56.51;103201.75;5051711;28;20060;-84
2022/03/20 01:19:15;;;;;;;10.25;5.15;;;;;;;4.43;56.30;103197.22;5052958;28;20471;-83
2022/03/20 01:21:41;;;;;;;9.98;5.32;;;;;;;4.40;56.26;103195.38;5053492;28;20460;-84
2022/03/20 01:24:08;;;;;;;13.55;6.10;;;;;;;4.38;56.94;103193.53;5019881;28;20037;-84
2022/03/20 01:26:36;;;;;;;11.60;5.80;;;;;;;4.32;56.80;103192.41;5054099;28;20025;-83
2022/03/20 01:29:04;;;;;;;11.32;5.80;;;;;;;4.30;56.67;103186.22;5052702;28;20044;-84
2022/03/20 01:31:34;;;;;;;9.45;5.97;;;;;;;4.30;56.91;103172.19;5036222;28;20083;-84
2022/03/20 01:34:01;;;;;;;12.15;6.75;;;;;;;4.26;56.99;103171.19;5053014;28;20033;-83
2022/03/20 01:36:26;;;;;;;12.85;7.55;;;;;;;4.23;56.82;103171.06;5052817;28;20055;-83
2022/03/20 01:38:53;;;;;;;13.90;7.50;;;;;;;4.22;56.55;103155.25;5036182;28;20414;-83
2022/03/20 01:41:18;;;;;;;16.27;8.90;;;;;;;4.19;56.68;103150.78;5052647;28;20147;-81
2022/03/20 01:43:58;;;;;;;15.15;8.35;;;;;;;4.19;56.99;103158.66;5019603;28;20057;-83
2022/03/20 01:46:23;;;;;;;14.48;8.93;;;;;;;4.16;56.96;103145.41;5052419;28;20056;-83
2022/03/20 01:48:50;;;;;;;17.60;9.18;;;;;;;4.16;56.87;103141.91;5036239;28;20033;-83
2022/03/20 01:51:17;;;;;;;12.02;8.65;;;;;;;4.12;56.72;103126.88;5036170;28;20037;-84
2022/03/20 01:53:44;;;;;;;16.45;9.63;;;;;;;4.11;56.56;103127.72;5052628;28;20041;-83
2022/03/20 01:56:10;;;;;;;16.27;10.32;;;;;;;4.08;57.29;103134.63;5044020;28;20242;-84
2022/03/20 01:58:36;;;;;;;20.35;10.23;;;;;;;4.05;57.04;103123.97;5033370;28;20469;-84
2022/03/20 02:01:02;;;;;;;15.15;9.75;;;;;;;4.04;57.28;103121.31;5034056;28;20038;-83
2022/03/20 02:03:29;;;;;;;17.23;10.43;;;;;;;4.01;57.27;103124.69;5015960;28;20060;-83
2022/03/20 02:05:55;;;;;;;17.58;10.30;;;;;;;4.01;57.15;103115.94;5032690;28;20095;-83
2022/03/20 02:08:25;;;;;;;21.17;11.80;;;;;;;3.98;57.27;103118.41;5032559;28;20091;-83
2022/03/20 02:10:55;;;;;;;16.17;10.48;;;;;;;3.96;56.83;103114.84;5032977;28;20176;-83
2022/03/20 02:13:22;;;;;;;20.13;11.07;;;;;;;3.94;57.63;103121.75;5032196;28;20084;-83
2022/03/20 02:15:49;;;;;;;18.10;10.43;;;;;;;3.91;57.20;103111.13;5015963;28;20471;-83
2022/03/20 02:18:14;;;;;;;19.00;10.27;;;;;;;3.91;57.31;103106.81;5050911;28;20090;-84
2022/03/20 02:20:40;;;;;;;19.25;10.90;;;;;;;3.90;57.47;103101.47;5052530;28;20033;-83
2022/03/20 02:23:06;;;;;;;20.48;11.23;;;;;;;3.87;57.71;103097.88;5068691;28;20399;-83
2022/03/20 02:25:33;;;;;;;22.52;10.98;;;;;;;3.86;57.66;103095.22;5035393;28;20085;-84
2022/03/20 02:28:00;;;;;;;16.50;10.05;;;;;;;3.83;57.91;103092.44;5052013;28;20040;-83
2022/03/20 02:30:30;;;;;;;20.38;11.57;;;;;;;3.76;57.22;103086.09;5052116;28;20025;-83
2022/03/20 02:32:56;;;;;;;18.77;10.90;;;;;;;3.74;57.51;103086.84;5035940;28;20041;-84
2022/03/20 02:35:22;;;;;;;22.92;12.18;;;;;;;3.67;58.10;103078.72;5035512;28;20057;-83
2022/03/20 02:37:52;;;;;;;18.88;11.15;;;;;;;3.63;58.16;103073.28;5051850;28;20361;-85
2022/03/20 02:40:20;;;;;;;17.98;10.80;;;;;;;3.62;58.29;103077.63;5035397;28;20025;-84
2022/03/20 02:42:51;;;;;;;20.30;10.90;;;;;;;3.61;58.44;103067.06;5034866;28;20029;-84
2022/03/20 02:45:20;;;;;;;21.25;11.82;;;;;;;3.60;58.47;103067.91;5019079;28;20487;-84
2022/03/20 02:47:47;;;;;;;18.50;11.90;;;;;;;3.57;58.08;103067.78;5051917;28;20021;-84
2022/03/20 02:50:27;;;;;;;19.75;11.77;;;;;;;3.53;58.31;103066.75;5034952;28;20505;-84
2022/03/20 02:53:03;;;;;;;20.73;11.88;;;;;;;3.55;58.78;103061.59;5035061;28;20164;-83
2022/03/20 02:55:37;;;;;;;24.05;12.45;;;;;;;3.51;58.60;103063.19;5035110;28;20539;-83
2022/03/20 02:58:07;;;;;;;23.15;12.65;;;;;;;3.49;59.00;103058.69;5034963;28;20037;-82
2022/03/20 03:00:34;;;;;;;21.55;12.55;;;;;;;3.47;58.65;103056.00;5034955;28;20064;-82
2022/03/20 03:03:01;;;;;;;20.42;11.65;;;;;;;3.45;58.40;103055.94;5023712;28;20091;-83
2022/03/20 03:05:28;;;;;;;22.13;12.25;;;;;;;3.42;59.21;103054.94;5058136;28;20036;-83
2022/03/20 03:10:59;;;;;;;21.75;12.45;;;;;;;3.35;59.39;103047.63;5091917;28;20116;-83
2022/03/20 03:13:34;;;;;;;20.55;12.30;;;;;;;3.32;58.82;103037.91;5060226;28;20039;-83
2022/03/20 03:16:03;;;;;;;22.42;12.70;;;;;;;3.30;59.41;103036.06;5074076;28;20031;-83
2022/03/20 03:18:29;;;;;;;21.20;10.18;;;;;;;3.25;59.22;103032.34;5073755;28;20077;-83
2022/03/20 03:20:55;;;;;;;23.02;12.05;;;;;;;3.22;59.33;103031.38;5075634;28;20032;-82
2022/03/20 03:23:21;;;;;;;22.40;12.57;;;;;;;3.16;60.24;103028.47;5050376;28;20040;-83
2022/03/20 03:25:47;;;;;;;23.13;12.90;;;;;;;3.13;60.28;103028.34;5074946;28;20031;-83
2022/03/20 03:28:13;;;;;;;21.30;13.45;;;;;;;3.08;60.52;103027.25;5091577;28;20043;-82
2022/03/20 03:30:42;;;;;;;18.90;11.98;;;;;;;3.08;60.08;103031.63;5074908;28;20016;-82
2022/03/20 03:33:07;;;;;;;23.13;13.27;;;;;;;3.05;61.27;103026.25;5074424;28;20443;-83
2022/03/20 03:35:42;;;;;;;23.90;14.20;;;;;;;3.03;60.60;103012.19;5074558;28;20028;-82
2022/03/20 03:38:16;;;;;;;21.95;14.15;;;;;;;2.99;60.57;103006.84;5073638;28;20768;-83
2022/03/20 03:40:44;;;;;;;24.70;12.80;;;;;;;2.95;60.53;103012.75;5056594;28;20439;-83
2022/03/20 03:43:11;;;;;;;24.90;14.18;;;;;;;2.94;60.98;102996.97;5073259;28;20036;-83
2022/03/20 03:45:39;;;;;;;24.48;13.57;;;;;;;2.92;60.81;102996.03;5056787;28;20051;-83
2022/03/20 03:48:06;;;;;;;25.75;14.30;;;;;;;2.88;60.63;102994.97;5091618;28;20039;-83
2022/03/20 03:50:33;;;;;;;25.27;14.50;;;;;;;2.85;61.07;102987.00;5027224;28;20032;-83
2022/03/20 03:52:58;;;;;;;25.98;14.90;;;;;;;2.84;60.92;102979.97;5036708;28;20068;-83
2022/03/20 03:55:24;;;;;;;24.27;14.82;;;;;;;2.82;61.07;102984.25;5036843;28;20116;-83
2022/03/20 03:57:51;;;;;;;25.35;14.35;;;;;;;2.80;61.39;102984.19;5036459;28;20455;-83
2022/03/20 04:00:18;;;;;;;22.63;13.85;;;;;;;2.79;61.36;102976.25;5036740;28;20489;-83
2022/03/20 04:02:45;;;;;;;24.63;13.27;;;;;;;2.76;61.13;102970.88;5069927;28;20097;-83
2022/03/20 04:05:10;;;;;;;26.08;14.95;;;;;;;2.72;60.94;102966.34;5036430;28;20099;-82
2022/03/20 04:07:36;;;;;;;27.30;15.10;;;;;;;2.73;61.92;102966.41;5052454;28;20056;-83
2022/03/20 04:10:05;;;;;;;22.33;13.70;;;;;;;2.72;61.28;102969.88;5053143;28;20050;-83
2022/03/20 04:12:33;;;;;;;23.17;13.18;;;;;;;2.71;61.77;102961.94;5070817;28;20028;-82
2022/03/20 04:15:02;;;;;;;22.98;13.48;;;;;;;2.73;61.36;102960.28;5019959;28;20072;-83
2022/03/20 04:17:34;;;;;;;22.60;14.50;;;;;;;2.68;61.14;102961.81;5031459;28;20123;-83
2022/03/20 04:20:01;;;;;;;26.17;14.20;;;;;;;2.70;61.36;102961.06;5059602;28;20128;-83
2022/03/20 04:22:28;;;;;;;24.65;13.88;;;;;;;2.67;61.33;102954.78;5069091;28;20020;-83
2022/03/20 04:24:54;;;;;;;25.65;14.88;;;;;;;2.63;61.51;102939.78;5053252;28;20049;-83
2022/03/20 04:27:21;;;;;;;27.08;14.18;;;;;;;2.66;61.66;102942.53;5069453;28;20504;-83
2022/03/20 04:29:49;;;;;;;23.67;14.05;;;;;;;2.64;61.58;102934.59;5036387;28;20391;-83
2022/03/20 04:32:15;;;;;;;25.67;15.15;;;;;;;2.63;62.12;102935.44;5069147;28;20029;-83
2022/03/20 04:34:43;;;;;;;23.45;13.90;;;;;;;2.62;61.25;102919.66;5052590;28;20028;-83
2022/03/20 04:37:10;;;;;;;25.45;13.85;;;;;;;2.64;62.08;102910.16;5036041;28;20043;-83
2022/03/20 04:39:37;;;;;;;24.27;15.02;;;;;;;2.58;61.73;102903.84;5052486;28;20037;-83
2022/03/20 04:42:03;;;;;;;33.38;14.20;;;;;;;2.62;61.79;102907.50;5070471;28;20032;-83
2022/03/20 04:44:30;;;;;;;24.40;14.63;;;;;;;2.61;61.98;102903.09;5052431;28;20033;-83
2022/03/20 04:46:55;;;;;;;26.88;14.43;;;;;;;2.59;61.53;102907.34;5052523;28;20087;-83
2022/03/20 05:00:20;;;;;;;22.05;12.93;;;;;;;2.54;61.70;102894.06;5056283;28;20036;-83
2022/03/20 05:02:47;;;;;;;23.15;13.32;;;;;;;2.53;61.36;102892.28;5039882;28;20337;-82
2022/03/20 05:05:13;;;;;;;22.55;13.10;;;;;;;2.52;61.31;102895.75;5039937;28;20436;-83
2022/03/20 05:07:39;;;;;;;25.08;13.88;;;;;;;2.51;61.70;102890.44;5074607;28;20044;-84
2022/03/20 05:15:36;;;;;;;26.98;13.07;;;;;;;2.45;61.41;102864.00;5042407;28;20135;-82
2022/03/20 05:18:03;;;;;;;21.73;13.85;;;;;;;2.43;61.33;102868.28;5071687;28;20040;-82
2022/03/20 05:20:29;;;;;;;24.55;14.15;;;;;;;2.41;61.81;102872.56;5076924;28;20032;-83
2022/03/20 05:22:55;;;;;;;22.35;13.98;;;;;;;2.40;61.30;102868.13;5094735;28;20066;-83
2022/03/20 05:25:21;;;;;;;21.48;13.10;;;;;;;2.39;61.70;102863.75;5059944;28;20376;-84
2022/03/20 05:27:46;;;;;;;23.10;13.75;;;;;;;2.36;61.74;102861.88;5076734;28;20035;-83
2022/03/20 05:30:12;;;;;;;25.73;14.52;;;;;;;2.31;61.14;102864.28;5076452;28;20036;-83
2022/03/20 05:32:39;;;;;;;23.25;14.13;;;;;;;2.35;60.99;102866.22;5043146;28;20024;-83
2022/03/20 05:35:07;;;;;;;25.80;14.02;;;;;;;2.32;61.62;102863.44;5059925;28;20420;-83
2022/03/20 05:37:32;;;;;;;25.05;13.63;;;;;;;2.32;61.26;102865.19;5060112;28;20064;-83
2022/03/20 05:39:59;;;;;;;21.02;13.52;;;;;;;2.33;61.40;102867.88;5076501;28;20071;-83
2022/03/20 05:42:24;;;;;;;24.02;13.38;;;;;;;2.30;61.35;102856.38;5094727;28;20049;-83
2022/03/20 05:44:51;;;;;;;22.67;13.32;;;;;;;2.32;61.48;102857.34;5059505;28;20119;-83
2022/03/20 05:47:17;;;;;;;27.48;15.45;;;;;;;2.28;61.25;102861.56;5076053;28;20035;-83
2022/03/20 05:49:42;;;;;;;25.58;13.98;;;;;;;2.31;61.12;102853.84;5092785;28;20039;-83
2022/03/20 05:52:08;;;;;;;23.05;11.95;;;;;;;2.30;61.06;102851.13;5075719;28;20112;-83
2022/03/20 05:54:34;;;;;;;22.80;14.00;;;;;;;2.31;60.47;102840.75;5042706;28;20036;-84
2022/03/20 05:59:44;;;;;;;22.90;14.00;;;;;;;2.30;60.63;102835.47;5078569;28;20046;-84
2022/03/20 06:02:10;;;;;;;22.75;13.25;;;;;;;2.32;60.33;102833.81;5075689;28;20032;-84
2022/03/20 06:04:38;;;;;;;23.05;13.38;;;;;;;2.35;59.92;102831.34;5075158;28;20055;-83
2022/03/20 06:07:05;;;;;;;22.02;14.48;;;;;;;2.36;59.75;102838.34;5072119;28;20029;-83
2022/03/20 06:09:31;;;;;;;22.60;14.38;;;;;;;2.38;59.59;102834.09;5055670;28;20059;-83
2022/03/20 06:11:57;;;;;;;24.55;13.60;;;;;;;2.41;59.61;102833.34;5038814;28;20025;-83
2022/03/20 06:14:23;;;;;;;22.92;14.25;;;;;;;2.43;58.97;102834.28;5038874;28;20391;-83
2022/03/20 06:16:49;;;;;;;25.75;14.10;;;;;;;2.46;58.82;102832.69;5058456;28;20024;-83
2022/03/20 06:19:16;;;;;;;23.08;13.32;;;;;;;2.50;58.62;102825.91;5075353;28;20055;-83
2022/03/20 06:21:43;;;;;;;23.80;14.10;;;;;;;2.52;58.27;102822.50;5075157;28;20032;-83
2022/03/20 06:24:09;;;;;;;21.83;13.48;;;;;;;2.55;58.65;102827.88;5058732;28;20032;-83
2022/03/20 06:26:35;;;;;;;21.52;13.80;;;;;;;2.59;58.41;102824.53;5075091;28;20038;-82
2022/03/20 06:29:02;;;;;;;31.58;15.25;;;;;;;2.62;58.26;102820.28;5058377;28;20120;-83
2022/03/20 06:31:28;;;;;;;26.73;13.70;;;;;;;2.66;57.97;102822.19;5041237;28;20032;-83
2022/03/20 06:33:56;;;;;;;25.25;13.65;;;;;;;2.72;57.68;102820.75;5057957;28;20040;-82
2022/03/20 06:36:21;;;;;;;25.35;14.55;;;;;;;2.75;57.68;102817.38;5058660;28;20079;-82
2022/03/20 06:38:47;;;;;;;25.50;13.93;;;;;;;2.79;57.93;102822.78;5074866;28;20072;-83
2022/03/20 06:41:13;;;;;;;24.20;14.68;;;;;;;2.82;57.56;102823.72;5057995;28;20076;-83
2022/03/20 06:43:39;;;;;;;23.35;14.82;;;;;;;2.87;57.26;102828.34;5058060;28;20043;-83
2022/03/20 06:46:06;;;;;;;25.23;14.05;;;;;;;2.91;56.91;102830.22;5057734;28;20082;-83
2022/03/20 06:48:32;;;;;;;22.02;13.88;;;;;;;2.92;56.43;102808.47;5074288;28;20032;-83
2022/03/20 06:50:58;;;;;;;21.85;13.75;;;;;;;2.95;56.99;102811.22;5057692;28;20430;-83
2022/03/20 06:53:24;;;;;;;25.25;13.93;;;;;;;3.00;57.12;102814.03;5054565;28;20067;-83
2022/03/20 06:55:49;;;;;;;24.23;14.70;;;;;;;3.01;56.79;102807.94;5046548;28;20051;-84
2022/03/20 06:58:17;;;;;;;31.35;13.85;;;;;;;3.06;56.71;102798.56;5055324;28;20123;-83
2022/03/20 07:00:42;;;;;;;26.58;13.80;;;;;;;3.11;56.53;102801.38;5082137;28;20039;-83
2022/03/20 07:03:08;;;;;;;27.83;14.80;;;;;;;3.14;55.98;102797.16;5058016;28;20403;-83
2022/03/20 07:05:36;;;;;;;22.90;14.65;;;;;;;3.21;55.69;102793.97;5041012;28;20106;-84
2022/03/20 07:08:03;;;;;;;25.27;14.48;;;;;;;3.24;55.54;102787.94;5047976;28;20511;-84
2022/03/20 07:10:28;;;;;;;25.30;13.50;;;;;;;3.30;55.04;102788.19;5053935;28;20345;-84
2022/03/20 07:15:40;;;;;;;24.52;14.30;;;;;;;3.44;54.79;102778.25;5052635;28;20047;-84
2022/03/20 07:18:06;;;;;;;26.30;14.45;;;;;;;3.52;54.00;102782.03;5089718;28;20065;-84
2022/03/20 07:20:32;;;;;;;22.80;13.88;;;;;;;3.55;53.32;102776.03;5070725;28;20033;-85
2022/03/20 07:22:58;;;;;;;27.02;14.52;;;;;;;3.67;52.70;102773.88;5059125;28;20114;-85
2022/03/20 07:30:52;;;;;;;22.92;13.52;;;;;;;3.78;52.44;102740.19;5062969;28;20032;-84
2022/03/20 07:33:17;;;;;;;24.85;13.52;;;;;;;3.89;52.91;102749.34;5038599;28;20486;-83
2022/03/20 07:35:52;;;;;;;22.10;13.73;;;;;;;3.98;51.77;102752.31;5056628;28;20090;-84
2022/03/20 07:38:18;;;;;;;26.92;13.00;;;;;;;4.10;51.30;102749.22;5036035;28;20071;-83
2022/03/20 07:40:44;;;;;;;22.52;13.50;;;;;;;4.19;50.39;102733.81;5066792;28;20154;-83
2022/03/20 07:43:09;;;;;;;22.48;13.23;;;;;;;4.23;50.03;102730.47;5039340;28;20029;-83
2022/03/20 07:45:35;;;;;;;24.13;13.35;;;;;;;4.28;49.49;102730.63;5052887;28;20139;-83
2022/03/20 07:48:02;;;;;;;30.52;13.82;;;;;;;4.28;50.06;102725.38;5068593;28;20356;-86
2022/03/20 07:50:28;;;;;;;26.42;14.07;;;;;;;4.27;49.31;102737.56;5067139;28;20028;-83
2022/03/20 07:52:56;;;;;;;23.77;13.35;;;;;;;4.27;48.64;102734.97;5086073;28;20380;-87
2022/03/20 07:55:23;;;;;;;23.02;13.73;;;;;;;4.25;48.68;102735.75;5052927;28;20035;-87
2022/03/20 07:57:49;;;;;;;21.83;13.88;;;;;;;4.27;48.47;102734.06;5086518;28;20112;-88
2022/03/20 08:00:17;;;;;;;23.98;12.90;;;;;;;4.30;48.27;102728.91;5068997;28;20040;-87
2022/03/20 08:02:44;;;;;;;23.42;14.13;;;;;;;4.35;48.21;102723.84;5069179;28;20024;-87
2022/03/20 08:05:10;;;;;;;26.05;13.57;;;;;;;4.32;49.58;102722.88;5028934;28;20061;-87
2022/03/20 08:07:37;;;;;;;22.92;13.63;;;;;;;4.40;47.28;102725.81;5027991;28;20044;-87
2022/03/20 08:10:07;;;;;;;26.30;13.45;;;;;;;4.42;47.12;102728.47;5060887;28;20032;-87
2022/03/20 08:12:34;;;;;;;26.07;14.33;;;;;;;4.38;47.76;102727.47;5045534;28;20493;-87
2022/03/20 08:14:59;;;;;;;20.75;12.68;;;;;;;4.36;47.52;102718.66;5059986;28;20128;-87
2022/03/20 08:17:25;;;;;;;33.22;14.55;;;;;;;4.37;47.90;102720.44;5047126;28;20100;-87
2022/03/20 08:19:51;;;;;;;22.88;14.20;;;;;;;4.40;47.91;102696.03;5044332;28;20504;-87
2022/03/20 08:22:17;;;;;;;22.60;13.77;;;;;;;4.39;48.61;102704.75;5028390;28;20052;-87
2022/03/20 08:24:46;;;;;;;20.83;13.48;;;;;;;4.41;47.13;102714.47;5061675;28;20717;-86
2022/03/20 08:27:12;;;;;;;22.60;12.77;;;;;;;4.38;47.56;102706.50;5046351;28;20064;-87
2022/03/20 08:29:37;;;;;;;24.98;13.95;;;;;;;4.38;47.25;102709.13;5046075;28;20389;-87
2022/03/20 08:32:03;;;;;;;28.85;13.93;;;;;;;4.35;47.40;102703.75;5045359;28;20086;-87
2022/03/20 08:34:28;;;;;;;24.42;13.68;;;;;;;4.36;47.82;102705.53;5012548;28;20047;-87
2022/03/20 08:36:55;;;;;;;23.10;13.85;;;;;;;4.37;47.71;102699.44;5029206;28;20434;-86
2022/03/20 08:39:21;;;;;;;23.27;14.48;;;;;;;4.40;47.93;102703.91;5059196;28;20059;-87
2022/03/20 08:41:47;;;;;;;25.15;13.60;;;;;;;4.41;48.02;102695.22;5032734;28;20025;-88
2022/03/20 08:44:13;;;;;;;24.98;14.05;;;;;;;4.42;47.49;102695.25;5029286;28;20128;-88
2022/03/20 08:46:39;;;;;;;25.13;14.13;;;;;;;4.45;47.50;102697.06;5045014;28;20472;-87
2022/03/20 08:49:07;;;;;;;21.38;13.38;;;;;;;4.47;47.55;102695.41;5045052;28;20029;-87
2022/03/20 08:51:34;;;;;;;23.10;13.63;;;;;;;4.48;47.57;102694.56;5046066;28;20120;-87
2022/03/20 08:54:01;;;;;;;28.58;14.32;;;;;;;4.47;47.07;102695.41;5045554;28;20115;-86
2022/03/20 08:56:28;;;;;;;26.55;14.30;;;;;;;4.48;47.34;102691.94;5032683;28;20148;-87
2022/03/20 08:58:54;;;;;;;26.55;15.27;;;;;;;4.46;47.62;102696.25;5045905;28;20048;-87
2022/03/20 09:01:20;;;;;;;21.83;13.65;;;;;;;4.49;47.11;102709.47;5062381;28;20029;-87
2022/03/20 09:03:49;;;;;;;24.20;14.27;;;;;;;4.47;48.05;102704.16;5045325;28;20064;-87
2022/03/20 09:06:19;;;;;;;24.52;14.13;;;;;;;4.48;48.17;102708.56;5049572;28;20029;-87
2022/03/20 09:08:45;;;;;;;25.45;13.38;;;;;;;4.47;48.57;102709.41;5033384;28;20041;-87
2022/03/20 09:11:10;;;;;;;24.60;14.40;;;;;;;4.49;48.40;102706.84;5061928;28;20091;-86
2022/03/20 09:13:36;;;;;;;22.70;14.27;;;;;;;4.45;48.07;102690.13;5029116;28;20119;-87
2022/03/20 09:18:59;;;;;;;24.77;14.07;;;;;;;4.47;48.26;102690.16;5062170;28;20036;-86
2022/03/20 09:21:28;;;;;;;26.38;14.25;;;;;;;4.51;48.68;102698.16;5013573;28;20029;-85
2022/03/20 09:23:55;;;;;;;32.13;14.60;;;;;;;4.56;48.84;102695.69;5044572;28;20091;-86
2022/03/20 09:26:20;;;;;;;22.05;14.43;;;;;;;4.61;49.40;102677.50;5015946;28;20033;-87
2022/03/20 09:28:46;;;;;;;25.10;14.50;;;;;;;4.65;48.42;102684.59;5062008;28;20460;-86
2022/03/20 09:31:13;;;;;;;23.77;14.68;;;;;;;4.74;48.61;102675.28;5045487;28;20052;-86
2022/03/20 09:33:39;;;;;;;23.90;13.80;;;;;;;4.87;47.79;102673.03;5028870;28;20021;-86
2022/03/20 09:36:06;;;;;;;27.45;15.77;;;;;;;5.07;48.54;102668.41;5062277;28;20400;-87
2022/03/20 09:38:33;;;;;;;27.70;15.15;;;;;;;5.37;47.66;102652.66;5063177;28;20036;-86
2022/03/20 09:41:03;;;;;;;29.17;16.65;;;;;;;5.77;47.53;102654.66;5048989;28;20052;-86
2022/03/20 09:43:31;;;;;;;28.50;14.77;;;;;;;6.13;45.76;102655.59;5050948;28;20064;-86
2022/03/20 09:45:57;;;;;;;24.33;14.15;;;;;;;6.28;45.02;102663.00;5049430;28;20479;-86
2022/03/20 09:48:23;;;;;;;23.42;14.25;;;;;;;6.32;44.67;102642.06;5064885;28;20087;-86
2022/03/20 09:50:49;;;;;;;24.67;15.02;;;;;;;6.49;45.40;102621.41;5032027;28;20017;-87
2022/03/20 09:53:15;;;;;;;24.55;14.35;;;;;;;6.80;44.55;102622.09;5048394;28;20112;-86
2022/03/20 09:55:40;;;;;;;23.58;14.48;;;;;;;7.06;43.30;102628.84;5065416;28;20483;-86
2022/03/20 09:58:06;;;;;;;27.65;15.50;;;;;;;7.29;43.78;102621.44;5048189;28;20041;-87
2022/03/20 10:00:32;;;;;;;28.35;15.23;;;;;;;7.33;43.30;102625.88;5064816;28;20037;-86
2022/03/20 10:02:57;;;;;;;26.88;14.80;;;;;;;7.36;43.36;102632.09;5032064;28;20416;-88
2022/03/20 10:05:28;;;;;;;25.35;16.20;;;;;;;7.33;43.08;102625.00;5048215;28;20220;-87
2022/03/20 10:08:09;;;;;;;25.42;15.93;;;;;;;7.27;44.53;102636.31;5048244;28;20424;-87
2022/03/20 10:10:35;;;;;;;26.65;15.48;;;;;;;7.16;42.57;102635.19;5064899;28;20039;-87
2022/03/20 10:13:01;;;;;;;25.95;15.77;;;;;;;7.07;43.85;102635.00;5020187;28;20037;-87
2022/03/20 10:15:38;;;;;;;32.38;15.85;;;;;;;6.99;44.04;102633.94;5015077;28;20029;-87
2022/03/20 10:18:09;;;;;;;30.65;16.27;;;;;;;6.86;43.28;102635.44;5048166;28;20037;-87
2022/03/20 10:20:36;;;;;;;28.77;16.25;;;;;;;6.77;43.77;102637.84;5036477;28;20041;-87
2022/03/20 10:23:03;;;;;;;26.02;15.65;;;;;;;6.71;43.64;102648.25;5064439;28;20093;-87
2022/03/20 10:25:29;;;;;;;31.42;16.50;;;;;;;6.63;44.83;102677.03;5037530;28;20102;-88
2022/03/20 10:27:57;;;;;;;33.75;20.55;;;;;;;6.52;51.94;102667.97;5019511;28;20058;-88
2022/03/20 10:30:23;;;;;;;29.13;20.70;;;;;;;6.34;55.41;102673.69;5065171;28;20052;-89
2022/03/20 10:32:49;;;;;;;35.53;21.75;;;;;;;6.20;56.29;102681.22;5049687;28;20032;-88
2022/03/20 10:35:17;;;;;;;33.45;21.73;;;;;;;6.01;57.91;102664.09;5047919;28;20112;-87
2022/03/20 10:37:53;;;;;;;34.00;19.98;;;;;;;5.98;57.00;102661.34;5036969;28;20043;-87
2022/03/20 10:40:25;;;;;;;32.97;22.23;;;;;;;5.87;59.24;102655.78;5061823;28;20083;-87
2022/03/20 10:43:09;;;;;;;32.75;21.70;;;;;;;5.87;57.70;102649.66;5043576;28;20464;-86
2022/03/20 10:46:01;;;;;;;31.45;21.13;;;;;;;5.77;58.92;102656.41;5035767;28;20154;-87
2022/03/20 10:48:35;;;;;;;30.85;22.08;;;;;;;5.72;59.64;102665.91;5028393;28;20076;-86
2022/03/20 10:51:10;;;;;;;32.38;21.67;;;;;;;5.62;61.42;102653.38;5028560;28;20120;-86
2022/03/20 10:53:53;;;;;;;33.83;23.55;;;;;;;5.74;60.56;102656.31;5045380;28;20041;-87
2022/03/20 10:56:21;;;;;;;33.53;22.17;;;;;;;5.77;62.41;102657.28;5033741;28;20087;-87
2022/03/20 10:58:48;;;;;;;36.53;23.23;;;;;;;5.76;62.61;102658.16;5034275;28;20021;-87
2022/03/20 11:01:14;;;;;;;34.85;22.48;;;;;;;5.75;64.29;102663.34;5049831;28;20117;-88
2022/03/20 11:03:40;;;;;;;35.05;22.55;;;;;;;5.78;63.98;102660.78;5032986;28;20162;-88
2022/03/20 11:06:07;;;;;;;40.80;24.55;;;;;;;5.71;63.62;102665.03;5060074;28;20032;-87
2022/03/20 11:08:33;;;;;;;34.25;22.45;;;;;;;5.70;63.58;102660.59;5057060;28;20036;-88
2022/03/20 11:11:00;;;;;;;36.25;23.33;;;;;;;5.71;64.63;102650.97;5067918;28;20123;-89
2022/03/20 11:13:26;;;;;;;34.67;22.65;;;;;;;5.77;64.01;102649.41;5072875;28;20080;-87
2022/03/20 11:15:53;;;;;;;39.20;23.52;;;;;;;5.76;63.95;102647.63;5058193;28;20040;-88
2022/03/20 11:18:20;;;;;;;41.40;23.70;;;;;;;5.80;64.16;102648.59;5087713;28;20431;-88
2022/03/20 11:20:49;;;;;;;35.42;22.17;;;;;;;5.81;63.81;102646.00;5086949;28;20451;-88
2022/03/20 11:23:17;;;;;;;35.58;23.42;;;;;;;5.82;63.82;102647.78;5076241;28;20096;-87
2022/03/20 11:25:45;;;;;;;35.33;21.73;;;;;;;5.88;63.75;102651.41;5081316;28;20032;-86
2022/03/20 11:28:12;;;;;;;36.92;24.23;;;;;;;5.84;63.16;102658.34;5071895;28;20112;-87
2022/03/20 11:30:39;;;;;;;35.75;23.13;;;;;;;5.88;63.63;102661.94;5065531;28;20028;-86
2022/03/20 11:33:09;;;;;;;37.67;22.55;;;;;;;5.92;63.47;102655.91;5075865;28;20036;-87
2022/03/20 11:35:36;;;;;;;37.45;23.13;;;;;;;5.93;63.67;102655.06;5071432;28;20082;-86
2022/03/20 11:38:20;;;;;;;32.75;21.45;;;;;;;5.96;62.92;102657.78;5080149;28;20028;-86
2022/03/20 11:41:07;;;;;;;35.17;23.17;;;;;;;5.98;63.57;102645.59;5068036;28;20035;-86
2022/03/20 11:43:35;;;;;;;37.05;23.65;;;;;;;5.94;64.63;102654.25;5086237;28;20032;-86
2022/03/20 11:46:29;;;;;;;37.42;23.92;;;;;;;6.02;64.33;102645.72;5081008;28;20016;-85
2022/03/20 11:49:12;;;;;;;37.53;24.10;;;;;;;6.11;63.56;102649.41;5085462;28;20044;-86
2022/03/20 11:52:06;;;;;;;35.05;21.23;;;;;;;6.19;64.51;102650.50;5086281;28;20032;-87
2022/03/20 11:54:53;;;;;;;34.90;21.90;;;;;;;6.27;63.99;102656.84;5088440;28;20053;-86